Time;durP1;ratioP1;P1;durP2;ratioP2;P2;SDS_P1;SDS_P2;PMS_P1;PMS_P2;Temp;Humidity;BMP_temperature;BMP_pressure;BME280_temperature;BME280_humidity;BME280_pressure;Samples;Min_cycle;Max_cycle;Signal;HPM_P1;HPM_P2
2021/08/24 02:40:22;;;;;;;17.70;2.72;;;;;;;;;;5020074;28;20419;-78
2021/08/24 02:43:15;;;;;;;16.98;2.97;;;;;;;;;;5001391;28;20054;-76
2021/08/24 02:45:53;;;;;;;19.75;3.75;;;;;;;;;;5000086;28;20042;-76
2021/08/24 02:48:21;;;;;;;16.75;3.72;;;;;;;;;;4993234;28;20041;-80
2021/08/24 02:50:49;;;;;;;13.57;3.15;;;;;;;;;;4993262;28;20485;-77
2021/08/24 02:53:21;;;;;;;18.10;3.28;;;;;;;;;;5000862;28;20121;-83
2021/08/24 02:55:49;;;;;;;18.00;3.83;;;;;;;;;;4995537;28;20049;-80
2021/08/24 02:58:16;;;;;;;19.02;3.50;;;;;;;;;;4987010;28;20043;-81
2021/08/24 03:00:46;;;;;;;13.45;3.28;;;;;;;;;;4995741;28;20054;-77
2021/08/24 03:03:15;;;;;;;17.27;3.22;;;;;;;;;;4979217;28;20039;-88
2021/08/24 03:05:42;;;;;;;17.42;3.15;;;;;;;;;;4979327;28;20477;-83
2021/08/24 03:08:10;;;;;;;20.15;4.03;;;;;;;;;;4988195;28;20043;-81
2021/08/24 03:10:39;;;;;;;;;;;;;;;;;;4979552;28;20527;-82
2021/08/24 03:13:12;;;;;;;17.17;2.92;;;;;;;;;;4979121;28;20038;-81
2021/08/24 03:15:46;;;;;;;15.63;3.17;;;;;;;;;;4974345;28;20169;-82
2021/08/24 03:18:27;;;;;;;17.20;3.80;;;;;;;;;;4993873;28;20404;-83
2021/08/24 03:21:02;;;;;;;17.92;3.17;;;;;;;;;;4961397;28;20038;-83
2021/08/24 03:23:30;;;;;;;16.60;3.50;;;;;;;;;;4976050;28;20400;-83
2021/08/24 03:25:57;;;;;;;14.02;3.17;;;;;;;;;;4977068;28;20038;-79
2021/08/24 03:28:25;;;;;;;14.85;3.60;;;;;;;;;;4980830;28;20038;-77
2021/08/24 03:30:52;;;;;;;14.02;3.15;;;;;;;;;;4978320;28;20516;-78
2021/08/24 03:33:21;;;;;;;15.75;3.63;;;;;;;;;;4980809;28;20043;-77
2021/08/24 03:35:48;;;;;;;16.00;3.60;;;;;;;;;;4981402;28;20038;-77
2021/08/24 03:38:15;;;;;;;16.05;3.22;;;;;;;;;;4980678;28;20042;-77
2021/08/24 03:40:43;;;;;;;14.95;3.70;;;;;;;;;;4980630;28;20058;-77
2021/08/24 03:43:11;;;;;;;24.92;4.20;;;;;;;;;;4996010;28;20047;-77
2021/08/24 03:45:38;;;;;;;11.80;2.80;;;;;;;;;;4980643;28;20089;-77
2021/08/24 03:48:08;;;;;;;15.52;3.10;;;;;;;;;;4980425;28;20039;-78
2021/08/24 03:50:35;;;;;;;13.95;3.45;;;;;;;;;;4971191;28;20067;-78
2021/08/24 03:53:02;;;;;;;14.75;3.38;;;;;;;;;;4968070;28;20038;-77
2021/08/24 03:55:29;;;;;;;9.82;2.80;;;;;;;;;;4967654;28;20035;-76
2021/08/24 03:57:56;;;;;;;15.00;3.58;;;;;;;;;;4971889;28;20151;-77
2021/08/24 04:00:23;;;;;;;11.60;3.55;;;;;;;;;;4977573;28;20635;-77
2021/08/24 04:02:51;;;;;;;15.57;3.72;;;;;;;;;;4967497;28;20081;-77
2021/08/24 04:05:18;;;;;;;14.55;3.25;;;;;;;;;;4982335;28;20528;-77
2021/08/24 04:07:46;;;;;;;12.05;3.25;;;;;;;;;;4967601;28;20530;-77
2021/08/24 04:10:14;;;;;;;15.75;3.05;;;;;;;;;;4967445;28;20053;-77
2021/08/24 04:12:41;;;;;;;16.52;3.60;;;;;;;;;;4967926;28;20133;-77
2021/08/24 04:15:09;;;;;;;16.27;3.28;;;;;;;;;;4967289;28;20066;-77
2021/08/24 04:17:38;;;;;;;15.30;3.47;;;;;;;;;;4967023;28;20122;-78
2021/08/24 04:20:09;;;;;;;16.13;3.83;;;;;;;;;;4982162;28;20133;-77
2021/08/24 04:22:38;;;;;;;20.48;4.57;;;;;;;;;;4967270;28;21073;-78
2021/08/24 04:25:06;;;;;;;15.85;3.55;;;;;;;;;;4981475;28;20046;-78
2021/08/24 04:27:33;;;;;;;17.65;3.63;;;;;;;;;;4965149;28;20389;-77
2021/08/24 04:30:00;;;;;;;19.60;3.78;;;;;;;;;;4978495;28;20055;-77
2021/08/24 04:32:29;;;;;;;16.15;3.67;;;;;;;;;;4965274;28;20478;-78
2021/08/24 04:34:56;;;;;;;15.20;4.18;;;;;;;;;;4981259;28;20089;-78
2021/08/24 04:37:24;;;;;;;20.90;3.97;;;;;;;;;;4967305;28;20551;-78
2021/08/24 04:39:52;;;;;;;20.60;4.22;;;;;;;;;;4981312;28;20070;-77
2021/08/24 04:42:20;;;;;;;14.82;4.28;;;;;;;;;;4970175;28;20131;-77
2021/08/24 04:44:47;;;;;;;;;;;;;;;;;;4967391;28;20475;-77
2021/08/24 04:47:14;;;;;;;18.85;4.13;;;;;;;;;;4966554;28;19918;-77
2021/08/24 04:49:41;;;;;;;18.15;4.07;;;;;;;;;;4981222;28;20096;-78
2021/08/24 04:52:08;;;;;;;18.33;4.25;;;;;;;;;;4966970;28;20050;-77
2021/08/24 04:54:35;;;;;;;14.00;3.35;;;;;;;;;;4966562;28;20043;-77
2021/08/24 04:57:06;;;;;;;17.92;4.35;;;;;;;;;;4966678;28;20038;-77
2021/08/24 04:59:34;;;;;;;13.50;2.95;;;;;;;;;;4966308;28;20030;-77
2021/08/24 05:02:01;;;;;;;18.35;3.75;;;;;;;;;;4963434;28;20066;-77
2021/08/24 05:04:28;;;;;;;14.82;3.47;;;;;;;;;;4966797;28;20505;-77
2021/08/24 05:06:55;;;;;;;19.63;3.60;;;;;;;;;;4965905;28;20057;-77
2021/08/24 05:09:22;;;;;;;18.40;4.15;;;;;;;;;;4964529;28;20057;-77
2021/08/24 05:11:49;;;;;;;18.27;3.70;;;;;;;;;;4964994;28;20494;-77
2021/08/24 05:14:16;;;;;;;19.75;4.28;;;;;;;;;;4980498;28;20061;-77
2021/08/24 05:16:44;;;;;;;17.42;4.00;;;;;;;;;;4964933;28;20046;-77
2021/08/24 05:19:11;;;;;;;14.20;3.80;;;;;;;;;;4966201;28;20146;-77
2021/08/24 05:21:38;;;;;;;18.77;4.15;;;;;;;;;;4965991;28;20063;-77
2021/08/24 05:24:05;;;;;;;14.25;3.83;;;;;;;;;;4966552;28;20039;-77
2021/08/24 05:26:32;;;;;;;13.52;3.33;;;;;;;;;;4965656;28;20540;-78
2021/08/24 05:28:59;;;;;;;15.13;3.63;;;;;;;;;;4964663;28;20061;-77
2021/08/24 05:31:26;;;;;;;16.13;3.55;;;;;;;;;;4966188;28;20057;-77
2021/08/24 05:33:53;;;;;;;12.55;3.25;;;;;;;;;;4963921;28;20046;-76
2021/08/24 05:36:20;;;;;;;18.15;3.83;;;;;;;;;;4964314;28;20489;-77
2021/08/24 05:38:47;;;;;;;18.38;3.47;;;;;;;;;;4965407;28;20039;-77
2021/08/24 05:41:15;;;;;;;19.80;3.70;;;;;;;;;;4963833;28;20414;-77
2021/08/24 05:43:43;;;;;;;15.45;3.13;;;;;;;;;;4966144;28;20070;-77
2021/08/24 05:46:13;;;;;;;14.05;3.53;;;;;;;;;;4965850;28;20038;-78
2021/08/24 05:48:40;;;;;;;16.02;3.35;;;;;;;;;;4963835;28;20417;-78
2021/08/24 05:51:13;;;;;;;22.38;3.85;;;;;;;;;;4965871;28;20042;-78
2021/08/24 05:53:40;;;;;;;14.93;3.55;;;;;;;;;;4963462;28;20051;-78
2021/08/24 05:56:10;;;;;;;18.48;3.97;;;;;;;;;;4965402;28;20078;-78
2021/08/24 05:58:37;;;;;;;13.38;3.67;;;;;;;;;;4965481;28;20039;-78
2021/08/24 06:01:05;;;;;;;16.52;3.53;;;;;;;;;;4980012;28;20178;-78
2021/08/24 06:03:33;;;;;;;13.75;3.17;;;;;;;;;;4963580;28;20137;-78
2021/08/24 06:06:00;;;;;;;14.43;3.90;;;;;;;;;;4964080;28;20050;-77
2021/08/24 06:08:27;;;;;;;18.25;4.00;;;;;;;;;;4965201;28;20101;-78
2021/08/24 06:10:54;;;;;;;18.95;3.88;;;;;;;;;;4979584;28;21093;-78
2021/08/24 06:13:21;;;;;;;26.48;4.68;;;;;;;;;;4965111;28;20034;-78
2021/08/24 06:15:48;;;;;;;11.73;3.15;;;;;;;;;;4964996;28;20058;-78
2021/08/24 06:18:15;;;;;;;18.35;4.05;;;;;;;;;;4980023;28;20034;-77
2021/08/24 06:20:42;;;;;;;16.63;3.67;;;;;;;;;;4965110;28;20054;-77
2021/08/24 06:23:09;;;;;;;14.00;3.03;;;;;;;;;;4965014;28;20128;-78
2021/08/24 06:25:37;;;;;;;18.02;4.45;;;;;;;;;;4980056;28;20043;-77
2021/08/24 06:28:04;;;;;;;14.50;3.67;;;;;;;;;;4964991;28;20039;-77
2021/08/24 06:30:32;;;;;;;21.33;3.75;;;;;;;;;;4965399;28;20050;-77
2021/08/24 06:32:59;;;;;;;14.48;3.92;;;;;;;;;;4979316;28;20073;-77
2021/08/24 06:35:26;;;;;;;20.52;3.75;;;;;;;;;;4963294;28;20051;-78
2021/08/24 06:37:53;;;;;;;17.50;3.38;;;;;;;;;;4964976;28;20054;-77
2021/08/24 06:40:20;;;;;;;22.33;4.63;;;;;;;;;;4964744;28;20047;-77
2021/08/24 06:42:52;;;;;;;15.73;3.53;;;;;;;;;;4965201;28;20042;-77
2021/08/24 06:45:25;;;;;;;17.80;3.63;;;;;;;;;;4979734;28;20401;-77
2021/08/24 06:47:53;;;;;;;16.77;3.75;;;;;;;;;;4963333;28;20129;-77
2021/08/24 06:50:22;;;;;;;19.88;3.75;;;;;;;;;;4964625;28;20397;-77
2021/08/24 06:52:49;;;;;;;17.33;3.63;;;;;;;;;;4965184;28;20054;-77
2021/08/24 06:55:17;;;;;;;16.05;3.60;;;;;;;;;;4963205;28;20460;-77
2021/08/24 06:57:44;;;;;;;23.58;3.92;;;;;;;;;;4964536;28;20038;-77
2021/08/24 07:00:17;;;;;;;21.23;4.00;;;;;;;;;;4965121;28;20043;-78
2021/08/24 07:02:45;;;;;;;15.45;3.58;;;;;;;;;;4964791;28;20054;-78
2021/08/24 07:05:14;;;;;;;18.98;4.00;;;;;;;;;;4963008;28;20043;-78
2021/08/24 07:07:41;;;;;;;16.77;3.60;;;;;;;;;;4979536;28;20082;-78
2021/08/24 07:10:10;;;;;;;15.77;3.90;;;;;;;;;;4964724;28;20043;-77
2021/08/24 07:12:38;;;;;;;18.20;4.43;;;;;;;;;;4964450;28;20464;-77
2021/08/24 07:15:10;;;;;;;21.85;3.80;;;;;;;;;;4963356;28;20031;-77
2021/08/24 07:17:38;;;;;;;20.00;4.30;;;;;;;;;;4964571;28;20085;-77
2021/08/24 07:20:09;;;;;;;14.65;3.17;;;;;;;;;;4963048;28;20043;-77
2021/08/24 07:22:36;;;;;;;23.52;4.53;;;;;;;;;;4962838;28;20058;-77
2021/08/24 07:25:10;;;;;;;22.20;4.45;;;;;;;;;;4964529;28;20043;-77
2021/08/24 07:27:38;;;;;;;21.85;3.80;;;;;;;;;;4968374;28;20039;-77
2021/08/24 07:30:06;;;;;;;15.10;3.47;;;;;;;;;;4966646;28;20043;-77
2021/08/24 07:32:33;;;;;;;18.02;3.95;;;;;;;;;;4968221;28;20061;-77
2021/08/24 07:35:01;;;;;;;19.10;3.63;;;;;;;;;;4967970;28;20532;-77
2021/08/24 07:37:28;;;;;;;18.55;3.85;;;;;;;;;;4968445;28;20038;-77
2021/08/24 07:39:55;;;;;;;18.38;4.13;;;;;;;;;;4982473;28;20043;-77
2021/08/24 07:42:23;;;;;;;15.98;3.95;;;;;;;;;;4967860;28;20057;-77
2021/08/24 07:44:50;;;;;;;18.08;4.28;;;;;;;;;;4968526;28;20051;-77
2021/08/24 07:47:17;;;;;;;19.48;4.35;;;;;;;;;;4967762;28;20035;-77
2021/08/24 07:49:46;;;;;;;21.55;4.47;;;;;;;;;;4965348;28;20564;-77
2021/08/24 07:52:14;;;;;;;17.55;4.10;;;;;;;;;;4968089;28;20047;-77
2021/08/24 07:54:41;;;;;;;16.13;3.75;;;;;;;;;;4967462;28;20508;-79
2021/08/24 07:57:08;;;;;;;19.88;4.63;;;;;;;;;;4967187;28;20051;-78
2021/08/24 07:59:35;;;;;;;18.58;4.97;;;;;;;;;;4967854;28;20402;-78
2021/08/24 08:02:02;;;;;;;20.13;3.92;;;;;;;;;;4982006;28;20039;-78
2021/08/24 08:04:30;;;;;;;20.83;4.43;;;;;;;;;;4967744;28;20057;-79
2021/08/24 08:06:57;;;;;;;16.50;4.05;;;;;;;;;;4967574;28;20171;-79
2021/08/24 08:09:24;;;;;;;17.42;4.35;;;;;;;;;;4967479;28;20051;-79
2021/08/24 08:11:52;;;;;;;23.48;4.15;;;;;;;;;;4966209;28;20121;-78
2021/08/24 08:14:19;;;;;;;15.77;4.18;;;;;;;;;;4967448;28;20046;-76
2021/08/24 08:16:46;;;;;;;20.48;4.65;;;;;;;;;;4965405;28;20187;-77
2021/08/24 08:19:13;;;;;;;16.48;3.90;;;;;;;;;;4967465;28;20047;-76
2021/08/24 08:21:41;;;;;;;17.60;4.65;;;;;;;;;;4966942;28;20043;-76
2021/08/24 08:24:09;;;;;;;21.58;4.32;;;;;;;;;;4965562;28;20073;-76
2021/08/24 08:26:37;;;;;;;16.58;4.53;;;;;;;;;;4967625;28;20066;-75
2021/08/24 08:29:13;;;;;;;11.70;4.22;;;;;;;;;;4981846;28;20038;-78
2021/08/24 08:31:43;;;;;;;18.13;5.40;;;;;;;;;;4965213;28;20054;-78
2021/08/24 08:34:11;;;;;;;19.30;5.00;;;;;;;;;;4966579;28;20053;-78
2021/08/24 08:36:48;;;;;;;16.17;4.63;;;;;;;;;;4966989;28;20075;-79
2021/08/24 08:39:17;;;;;;;13.70;4.32;;;;;;;;;;4966682;28;20046;-76
2021/08/24 08:42:04;;;;;;;16.98;4.72;;;;;;;;;;4966690;28;20051;-76
2021/08/24 08:44:38;;;;;;;16.48;4.20;;;;;;;;;;4967074;28;20121;-75
2021/08/24 08:47:08;;;;;;;15.75;4.45;;;;;;;;;;4966841;28;20054;-76
2021/08/24 08:49:56;;;;;;;15.95;4.75;;;;;;;;;;4980593;28;20062;-76
2021/08/24 08:52:43;;;;;;;13.20;4.50;;;;;;;;;;4964845;28;20047;-76
2021/08/24 08:55:39;;;;;;;16.48;4.78;;;;;;;;;;4966455;28;20050;-76
2021/08/24 08:58:32;;;;;;;14.60;4.90;;;;;;;;;;4965798;28;20055;-77
2021/08/24 09:01:18;;;;;;;15.95;4.22;;;;;;;;;;4966262;28;20122;-76
2021/08/24 09:03:56;;;;;;;16.35;3.95;;;;;;;;;;4981046;28;20043;-77
2021/08/24 09:06:27;;;;;;;19.60;4.45;;;;;;;;;;4966352;28;20042;-77
2021/08/24 09:08:58;;;;;;;13.05;4.43;;;;;;;;;;4964847;28;20039;-78
2021/08/24 09:11:38;;;;;;;16.15;4.85;;;;;;;;;;4980569;28;20034;-78
2021/08/24 09:14:16;;;;;;;17.17;4.97;;;;;;;;;;4981069;28;20035;-78
2021/08/24 09:17:21;;;;;;;18.20;4.75;;;;;;;;;;4964562;28;20401;-78
2021/08/24 09:19:58;;;;;;;13.60;4.30;;;;;;;;;;4970001;28;20046;-79
2021/08/24 09:22:25;;;;;;;13.02;4.05;;;;;;;;;;4966295;28;20519;-78
2021/08/24 09:24:53;;;;;;;20.75;4.20;;;;;;;;;;4964470;28;20374;-78
2021/08/24 09:27:46;;;;;;;19.90;5.05;;;;;;;;;;4964896;28;20101;-78
2021/08/24 09:30:13;;;;;;;;;;;;;;;;;;4966194;28;20163;-77
2021/08/24 09:32:40;;;;;;;13.68;4.45;;;;;;;;;;4964714;28;20443;-78
2021/08/24 09:35:15;;;;;;;16.10;4.85;;;;;;;;;;4974787;28;20428;-80
2021/08/24 09:37:43;;;;;;;15.90;4.65;;;;;;;;;;4983103;28;20050;-81
2021/08/24 09:40:32;;;;;;;17.13;6.00;;;;;;;;;;4967511;28;20121;-79
2021/08/24 09:43:23;;;;;;;19.77;5.32;;;;;;;;;;4999907;28;20101;-79
2021/08/24 09:46:14;;;;;;;19.83;6.03;;;;;;;;;;4981725;28;20575;-80
2021/08/24 09:48:58;;;;;;;17.48;5.35;;;;;;;;;;4974037;28;20631;-80
2021/08/24 09:51:53;;;;;;;16.42;5.63;;;;;;;;;;4970751;28;20508;-79
2021/08/24 09:55:00;;;;;;;17.50;5.80;;;;;;;;;;4965468;28;20989;-79
2021/08/24 09:57:36;;;;;;;15.98;6.00;;;;;;;;;;4964718;28;20046;-78
2021/08/24 10:00:22;;;;;;;18.40;8.75;;;;;;;;;;4963945;28;20393;-80
2021/08/24 10:03:00;;;;;;;17.67;7.90;;;;;;;;;;4965755;28;20038;-81
2021/08/24 10:05:38;;;;;;;22.25;8.20;;;;;;;;;;4964432;28;20490;-80
2021/08/24 10:08:23;;;;;;;25.17;9.52;;;;;;;;;;4966182;28;20050;-78
2021/08/24 10:11:01;;;;;;;20.30;9.00;;;;;;;;;;4966113;28;20039;-79
2021/08/24 10:13:36;;;;;;;21.98;8.05;;;;;;;;;;4965955;28;20035;-79
2021/08/24 10:16:08;;;;;;;;;;;;;;;;;;4970143;28;20042;-80
2021/08/24 10:18:36;;;;;;;25.83;8.27;;;;;;;;;;4965469;28;19925;-79
2021/08/24 10:21:05;;;;;;;23.38;7.82;;;;;;;;;;4967395;28;20050;-75
2021/08/24 10:23:58;;;;;;;20.23;7.63;;;;;;;;;;4998946;28;20061;-76
2021/08/24 10:26:32;;;;;;;;;;;;;;;;;;4984121;28;20057;-76
2021/08/24 10:29:01;;;;;;;19.65;7.97;;;;;;;;;;4966457;28;19917;-75
2021/08/24 10:31:36;;;;;;;23.48;8.20;;;;;;;;;;4983933;28;20053;-75
2021/08/24 10:34:05;;;;;;;22.60;10.13;;;;;;;;;;4984247;28;20476;-84
2021/08/24 10:36:38;;;;;;;19.92;8.48;;;;;;;;;;4984012;28;20051;-84
2021/08/24 10:39:25;;;;;;;27.35;9.73;;;;;;;;;;4983712;28;20042;-86
2021/08/24 10:42:17;;;;;;;31.25;11.80;;;;;;;;;;4983991;28;20054;-82
2021/08/24 10:44:56;;;;;;;23.15;12.65;;;;;;;;;;4984442;28;20038;-78
2021/08/24 10:47:31;;;;;;;25.13;10.73;;;;;;;;;;4983804;28;20038;-77
2021/08/24 10:49:59;;;;;;;;;;;;;;;;;;4984379;28;20050;-79
2021/08/24 10:52:51;;;;;;;17.95;7.13;;;;;;;;;;4983989;28;19972;-76
2021/08/24 10:55:27;;;;;;;20.23;7.97;;;;;;;;;;4984327;28;20069;-77
2021/08/24 10:58:03;;;;;;;19.05;9.00;;;;;;;;;;4982352;28;20151;-76
2021/08/24 11:00:38;;;;;;;19.27;8.65;;;;;;;;;;4984512;28;20038;-76
2021/08/24 11:03:33;;;;;;;18.60;8.73;;;;;;;;;;4987915;28;20042;-75
2021/08/24 11:06:03;;;;;;;20.20;9.25;;;;;;;;;;4987971;28;20046;-78
2021/08/24 11:08:35;;;;;;;23.75;9.52;;;;;;;;;;4969981;28;20085;-79
2021/08/24 11:11:29;;;;;;;21.58;9.48;;;;;;;;;;4987632;28;20034;-79
2021/08/24 11:14:01;;;;;;;18.95;10.07;;;;;;;;;;4988001;28;20034;-77
2021/08/24 11:16:49;;;;;;;24.05;11.13;;;;;;;;;;5002489;28;20039;-76
2021/08/24 11:19:39;;;;;;;22.80;11.27;;;;;;;;;;4987555;28;20045;-76
2021/08/24 11:22:31;;;;;;;24.58;12.23;;;;;;;;;;4987503;28;20049;-77
2021/08/24 11:25:13;;;;;;;23.15;10.63;;;;;;;;;;4987843;28;20047;-77
2021/08/24 11:27:45;;;;;;;20.45;10.13;;;;;;;;;;4985979;28;20129;-76
2021/08/24 11:30:20;;;;;;;22.08;9.93;;;;;;;;;;4987713;28;20046;-77
2021/08/24 11:32:55;;;;;;;27.58;17.48;;;;;;;;;;4987296;28;20042;-77
2021/08/24 11:35:55;;;;;;;31.13;18.45;;;;;;;;;;5001900;28;20042;-76
2021/08/24 11:38:28;;;;;;;29.65;17.80;;;;;;;;;;4981468;28;20057;-76
2021/08/24 11:40:58;;;;;;;28.45;17.80;;;;;;;;;;4985595;28;20520;-76
2021/08/24 11:43:46;;;;;;;32.00;16.67;;;;;;;;;;4987225;28;20137;-76
2021/08/24 11:46:32;;;;;;;27.63;11.95;;;;;;;;;;4975891;28;20038;-77
2021/08/24 11:49:08;;;;;;;20.35;9.48;;;;;;;;;;4987059;28;20043;-76
2021/08/24 11:51:38;;;;;;;19.48;10.02;;;;;;;;;;4968612;28;20125;-76
2021/08/24 11:54:23;;;;;;;26.80;10.50;;;;;;;;;;4987008;28;20102;-76
2021/08/24 11:57:09;;;;;;;16.25;9.32;;;;;;;;;;4985518;28;20038;-78
2021/08/24 11:59:44;;;;;;;20.83;10.07;;;;;;;;;;4986753;28;20049;-78
2021/08/24 12:02:18;;;;;;;22.27;11.13;;;;;;;;;;4985338;28;20109;-78
2021/08/24 12:04:48;;;;;;;27.08;12.52;;;;;;;;;;4986329;28;20058;-78
2021/08/24 12:07:33;;;;;;;21.67;12.48;;;;;;;;;;4986628;28;20034;-78
2021/08/24 12:10:24;;;;;;;21.85;11.18;;;;;;;;;;4986643;28;20126;-78
2021/08/24 12:12:54;;;;;;;25.08;13.65;;;;;;;;;;4979937;28;20122;-77
2021/08/24 12:15:33;;;;;;;23.98;11.40;;;;;;;;;;4986626;28;20046;-77
2021/08/24 12:18:27;;;;;;;23.80;10.73;;;;;;;;;;4986673;28;20130;-76
2021/08/24 12:21:18;;;;;;;21.88;12.32;;;;;;;;;;4969394;28;20080;-77
2021/08/24 12:23:46;;;;;;;30.13;12.15;;;;;;;;;;5004506;28;20046;-76
2021/08/24 12:26:37;;;;;;;26.58;11.38;;;;;;;;;;5001776;28;20084;-78
2021/08/24 12:29:10;;;;;;;25.75;12.18;;;;;;;;;;4999772;28;20120;-78
2021/08/24 12:31:44;;;;;;;27.08;12.55;;;;;;;;;;5004774;28;20100;-81
2021/08/24 12:34:35;;;;;;;24.42;12.65;;;;;;;;;;5006197;28;20042;-81
2021/08/24 12:37:07;;;;;;;28.15;14.63;;;;;;;;;;5006324;28;20055;-81
2021/08/24 12:39:40;;;;;;;26.13;11.65;;;;;;;;;;5006219;28;20049;-80
2021/08/24 12:42:29;;;;;;;24.50;11.50;;;;;;;;;;5006471;28;20192;-81
2021/08/24 12:45:02;;;;;;;23.77;11.15;;;;;;;;;;5004787;28;20053;-80
2021/08/24 12:47:46;;;;;;;22.52;11.75;;;;;;;;;;5004541;28;20045;-82
2021/08/24 12:50:13;;;;;;;23.45;10.93;;;;;;;;;;5005031;28;20112;-79
2021/08/24 12:52:45;;;;;;;23.55;11.98;;;;;;;;;;5004238;28;20411;-79
2021/08/24 12:55:34;;;;;;;27.95;13.68;;;;;;;;;;5006170;28;20049;-79
2021/08/24 12:58:14;;;;;;;26.60;14.80;;;;;;;;;;5006089;28;20042;-79
2021/08/24 13:00:43;;;;;;;31.25;14.35;;;;;;;;;;5006086;28;20133;-79
2021/08/24 13:03:26;;;;;;;31.95;14.52;;;;;;;;;;5004568;28;20450;-79
2021/08/24 13:06:11;;;;;;;;;;;;;;;;;;5006201;28;20065;-79
2021/08/24 13:08:39;;;;;;;43.63;19.70;;;;;;;;;;5005824;28;19921;-79
2021/08/24 13:11:23;;;;;;;33.17;16.27;;;;;;;;;;5004127;28;20500;-78
2021/08/24 13:13:58;;;;;;;30.08;13.32;;;;;;;;;;5005538;28;20057;-78
2021/08/24 13:16:33;;;;;;;30.10;13.27;;;;;;;;;;5005708;28;20050;-79
2021/08/24 13:19:04;;;;;;;24.90;12.35;;;;;;;;;;5005408;28;20041;-78
2021/08/24 13:22:01;;;;;;;25.13;13.05;;;;;;;;;;5005776;28;20546;-78
2021/08/24 13:24:35;;;;;;;26.00;12.55;;;;;;;;;;5000899;28;20038;-79
2021/08/24 13:27:16;;;;;;;26.08;12.27;;;;;;;;;;4987536;28;20034;-79
2021/08/24 13:29:43;;;;;;;26.65;12.13;;;;;;;;;;5005280;28;20411;-79
2021/08/24 13:32:34;;;;;;;26.25;12.77;;;;;;;;;;5005234;28;20476;-79
2021/08/24 13:35:04;;;;;;;20.13;11.07;;;;;;;;;;5005225;28;20041;-75
2021/08/24 13:37:40;;;;;;;24.13;11.55;;;;;;;;;;5004836;28;20117;-75
2021/08/24 13:40:16;;;;;;;23.55;11.65;;;;;;;;;;4995442;28;20045;-75
2021/08/24 13:42:48;;;;;;;22.38;11.07;;;;;;;;;;5003449;28;20049;-75
2021/08/24 13:45:22;;;;;;;22.33;11.95;;;;;;;;;;5005058;28;20153;-74
2021/08/24 13:47:51;;;;;;;27.17;10.85;;;;;;;;;;5004865;28;20046;-80
2021/08/24 13:50:37;;;;;;;22.88;11.10;;;;;;;;;;5004445;28;20120;-77
2021/08/24 13:53:13;;;;;;;23.70;9.13;;;;;;;;;;5004806;28;20487;-75
2021/08/24 13:55:41;;;;;;;20.17;10.38;;;;;;;;;;5004618;28;20073;-78
2021/08/24 13:58:28;;;;;;;23.67;10.10;;;;;;;;;;5002790;28;20038;-77
2021/08/24 14:01:20;;;;;;;21.73;9.95;;;;;;;;;;4998739;28;20042;-78
2021/08/24 14:03:51;;;;;;;21.92;9.77;;;;;;;;;;4962688;28;20491;-79
2021/08/24 14:06:35;;;;;;;21.45;10.73;;;;;;;;;;4949827;28;20053;-78
2021/08/24 14:09:40;;;;;;;20.00;9.73;;;;;;;;;;4954446;28;22264;-80
2021/08/24 14:12:37;;;;;;;25.50;11.00;;;;;;;;;;4953679;28;21113;-79
2021/08/24 14:15:27;;;;;;;20.13;11.05;;;;;;;;;;4956641;28;20050;-78
2021/08/24 14:17:58;;;;;;;21.25;10.60;;;;;;;;;;4961233;28;20046;-79
2021/08/24 14:20:34;;;;;;;24.67;11.40;;;;;;;;;;4961853;28;20872;-77
2021/08/24 14:23:10;;;;;;;25.10;10.82;;;;;;;;;;4961514;28;20488;-77
2021/08/24 14:25:42;;;;;;;25.38;11.80;;;;;;;;;;4961533;28;20706;-83
2021/08/24 14:28:35;;;;;;;25.23;11.27;;;;;;;;;;4961403;28;20038;-78
2021/08/24 14:31:04;;;;;;;28.75;11.48;;;;;;;;;;4961279;28;20113;-78
2021/08/24 14:33:40;;;;;;;22.08;11.48;;;;;;;;;;4961051;28;20066;-77
2021/08/24 14:36:22;;;;;;;23.33;11.63;;;;;;;;;;4958282;28;20981;-77
2021/08/24 14:38:57;;;;;;;28.13;12.05;;;;;;;;;;4985296;28;20046;-77
2021/08/24 14:41:31;;;;;;;27.52;11.60;;;;;;;;;;4982760;28;20125;-78
2021/08/24 14:44:07;;;;;;;24.48;11.70;;;;;;;;;;4984878;28;20062;-78
2021/08/24 14:46:45;;;;;;;25.13;10.98;;;;;;;;;;4983135;28;20104;-77
2021/08/24 14:49:27;;;;;;;29.15;11.07;;;;;;;;;;4984517;28;20100;-78
2021/08/24 14:51:54;;;;;;;25.60;14.40;;;;;;;;;;4985042;28;20570;-78
2021/08/24 14:54:27;;;;;;;31.85;15.65;;;;;;;;;;4984695;28;20173;-78
2021/08/24 14:56:55;;;;;;;35.17;16.83;;;;;;;;;;4983035;28;20038;-78
2021/08/24 14:59:22;;;;;;;26.45;13.52;;;;;;;;;;4983217;28;20042;-78
2021/08/24 15:02:10;;;;;;;32.05;14.52;;;;;;;;;;4985261;28;20043;-77
2021/08/24 15:04:41;;;;;;;30.17;13.95;;;;;;;;;;4984815;28;20056;-78
2021/08/24 15:07:11;;;;;;;37.50;14.55;;;;;;;;;;4982141;28;20046;-78
2021/08/24 15:09:41;;;;;;;28.50;11.10;;;;;;;;;;4983508;28;20092;-80
2021/08/24 15:12:28;;;;;;;32.00;12.50;;;;;;;;;;4983272;28;20096;-81
2021/08/24 15:15:01;;;;;;;24.48;10.90;;;;;;;;;;4981197;28;20042;-79
2021/08/24 15:17:38;;;;;;;32.78;12.27;;;;;;;;;;4979603;28;20436;-78
2021/08/24 15:20:10;;;;;;;26.25;11.50;;;;;;;;;;4983095;28;20074;-78
2021/08/24 15:22:41;;;;;;;25.15;10.93;;;;;;;;;;4983223;28;20389;-78
2021/08/24 15:25:08;;;;;;;33.22;12.32;;;;;;;;;;4981427;28;20137;-78
2021/08/24 15:27:51;;;;;;;29.02;10.70;;;;;;;;;;4966273;28;20144;-78
2021/08/24 15:30:23;;;;;;;27.27;10.35;;;;;;;;;;4980534;28;20042;-77
2021/08/24 15:32:58;;;;;;;25.85;10.45;;;;;;;;;;4978146;28;20070;-77
2021/08/24 15:35:34;;;;;;;32.30;11.38;;;;;;;;;;4968728;28;20129;-76
2021/08/24 15:38:05;;;;;;;30.15;10.38;;;;;;;;;;4981327;28;20056;-79
2021/08/24 15:40:51;;;;;;;35.75;12.15;;;;;;;;;;4961717;28;20065;-91
2021/08/24 15:43:29;;;;;;;31.58;10.02;;;;;;;;;;4978594;28;20058;-79
2021/08/24 15:45:56;;;;;;;30.75;10.57;;;;;;;;;;4979851;28;20579;-79
2021/08/24 15:48:27;;;;;;;31.08;10.60;;;;;;;;;;4997703;28;20031;-79
2021/08/24 15:50:54;;;;;;;32.13;10.90;;;;;;;;;;4976325;28;20050;-79
2021/08/24 15:53:22;;;;;;;34.50;11.13;;;;;;;;;;4960853;28;20443;-78
2021/08/24 15:55:57;;;;;;;26.25;8.90;;;;;;;;;;4985218;28;20043;-77
2021/08/24 15:58:31;;;;;;;26.05;9.43;;;;;;;;;;4980990;28;20043;-77
2021/08/24 16:00:59;;;;;;;23.65;8.63;;;;;;;;;;4982942;28;20125;-81
2021/08/24 16:03:26;;;;;;;20.17;8.38;;;;;;;;;;4998599;28;20046;-80
2021/08/24 16:05:53;;;;;;;24.73;8.50;;;;;;;;;;4981050;28;20042;-77
2021/08/24 16:08:20;;;;;;;23.25;9.32;;;;;;;;;;4965603;28;20042;-80
2021/08/24 16:10:48;;;;;;;26.50;9.23;;;;;;;;;;4983021;28;20035;-82
2021/08/24 16:13:17;;;;;;;23.40;9.90;;;;;;;;;;4979562;28;20512;-82
2021/08/24 16:15:44;;;;;;;;;;;;;;;;;;4983970;28;20468;-84
2021/08/24 16:18:17;;;;;;;24.88;10.23;;;;;;;;;;4997873;28;19961;-79
2021/08/24 16:20:45;;;;;;;32.83;10.63;;;;;;;;;;4982113;28;20100;-83
2021/08/24 16:23:15;;;;;;;29.13;9.80;;;;;;;;;;4972688;28;20596;-78
2021/08/24 16:25:42;;;;;;;27.45;10.25;;;;;;;;;;4981286;28;20136;-84
2021/08/24 16:28:09;;;;;;;22.33;9.45;;;;;;;;;;4977311;28;20052;-78
2021/08/24 16:30:39;;;;;;;30.00;9.93;;;;;;;;;;4968457;28;20057;-76
2021/08/24 16:33:07;;;;;;;27.23;10.07;;;;;;;;;;4975743;28;20062;-73
2021/08/24 16:35:38;;;;;;;26.80;9.70;;;;;;;;;;4967127;28;20065;-78
2021/08/24 16:38:11;;;;;;;24.70;11.45;;;;;;;;;;4956810;28;21144;-72
2021/08/24 16:40:40;;;;;;;22.95;10.98;;;;;;;;;;4956055;28;20057;-72
2021/08/24 16:43:07;;;;;;;28.70;11.68;;;;;;;;;;4958421;28;20105;-72
2021/08/24 16:45:34;;;;;;;27.42;12.60;;;;;;;;;;4941077;28;20046;-71
2021/08/24 16:48:02;;;;;;;29.33;12.10;;;;;;;;;;4955998;28;20173;-73
2021/08/24 16:50:30;;;;;;;24.88;12.02;;;;;;;;;;4971122;28;20054;-80
2021/08/24 16:52:57;;;;;;;28.67;12.02;;;;;;;;;;4958161;28;20062;-72
2021/08/24 16:55:27;;;;;;;31.25;13.50;;;;;;;;;;4959459;28;20041;-74
2021/08/24 16:57:54;;;;;;;29.60;13.32;;;;;;;;;;4957084;28;20073;-73
2021/08/24 17:00:23;;;;;;;29.90;12.85;;;;;;;;;;4955437;28;20513;-73
2021/08/24 17:02:51;;;;;;;34.63;14.55;;;;;;;;;;4969679;28;20425;-73
2021/08/24 17:05:23;;;;;;;33.17;15.02;;;;;;;;;;4968837;28;20057;-73
2021/08/24 17:07:50;;;;;;;32.38;15.27;;;;;;;;;;4954914;28;20065;-73
2021/08/24 17:10:17;;;;;;;31.95;14.77;;;;;;;;;;4955847;28;20520;-77
2021/08/24 17:12:44;;;;;;;32.17;15.40;;;;;;;;;;4955362;28;20050;-73
2021/08/24 17:15:18;;;;;;;27.23;14.85;;;;;;;;;;4954853;28;20417;-74
2021/08/24 17:17:45;;;;;;;26.98;14.13;;;;;;;;;;4958372;28;20050;-75
2021/08/24 17:20:13;;;;;;;34.85;15.52;;;;;;;;;;4956990;28;20049;-82
2021/08/24 17:22:40;;;;;;;34.53;15.27;;;;;;;;;;4958463;28;20491;-72
2021/08/24 17:25:09;;;;;;;35.63;15.15;;;;;;;;;;4940549;28;20500;-73
2021/08/24 17:27:37;;;;;;;35.67;14.95;;;;;;;;;;4959025;28;20046;-72
2021/08/24 17:30:05;;;;;;;29.00;15.02;;;;;;;;;;4973475;28;20051;-72
2021/08/24 17:32:32;;;;;;;32.72;15.07;;;;;;;;;;4958942;28;20085;-74
2021/08/24 17:34:59;;;;;;;39.75;15.18;;;;;;;;;;4959198;28;20050;-73
2021/08/24 17:37:26;;;;;;;34.40;14.85;;;;;;;;;;4972896;28;20042;-73
2021/08/24 17:39:53;;;;;;;32.42;15.23;;;;;;;;;;4955264;28;20531;-79
2021/08/24 17:42:20;;;;;;;26.25;14.45;;;;;;;;;;4953865;28;20535;-74